Time;durP1;ratioP1;P1;durP2;ratioP2;P2;SDS_P1;SDS_P2;PMS_P1;PMS_P2;Temp;Humidity;BMP_temperature;BMP_pressure;BME280_temperature;BME280_humidity;BME280_pressure;Samples;Min_cycle;Max_cycle;Signal;HPM_P1;HPM_P2
2023/08/15 00:03:26;;;;;;;;;;;21.50;99.90;;;;;;12415625;28;19933;-86
2023/08/15 00:09:28;;;;;;;;;;;21.40;99.90;;;;;;12414220;28;19936;-86
2023/08/15 00:15:30;;;;;;;;;;;21.40;99.90;;;;;;12409580;28;19936;-86
2023/08/15 00:21:32;;;;;;;;;;;21.30;99.90;;;;;;12407271;28;19934;-86
2023/08/15 00:27:34;;;;;;;;;;;21.30;99.90;;;;;;12387523;28;19926;-86
2023/08/15 00:33:38;;;;;;;;;;;21.30;99.90;;;;;;12397508;28;19934;-86
2023/08/15 00:39:40;;;;;;;;;;;21.30;99.90;;;;;;12375988;28;19965;-86
2023/08/15 00:45:43;;;;;;;;;;;21.30;99.90;;;;;;12333113;28;19926;-87
2023/08/15 00:51:46;;;;;;;;;;;21.30;99.90;;;;;;12378110;28;19926;-86
2023/08/15 00:57:51;;;;;;;;;;;21.30;99.90;;;;;;12387399;28;19930;-86
2023/08/15 01:03:54;;;;;;;;;;;21.20;99.90;;;;;;12388630;28;19933;-87
2023/08/15 01:09:56;;;;;;;;;;;21.20;99.90;;;;;;12377083;28;19976;-85
2023/08/15 01:15:58;;;;;;;;;;;21.20;99.90;;;;;;12384108;28;19978;-86
2023/08/15 01:22:03;;;;;;;;;;;21.20;99.90;;;;;;12405954;28;19925;-86
2023/08/15 01:28:06;;;;;;;;;;;21.10;99.90;;;;;;12395120;28;19925;-89
2023/08/15 01:34:18;;;;;;;;;;;21.20;99.90;;;;;;12360221;28;19926;-86
2023/08/15 01:40:22;;;;;;;;;;;21.10;99.90;;;;;;12390411;28;19925;-86
2023/08/15 01:46:24;;;;;;;;;;;21.20;99.90;;;;;;12391440;28;19927;-88
2023/08/15 01:52:26;;;;;;;;;;;21.20;99.90;;;;;;12410313;28;19925;-88
2023/08/15 01:58:27;;;;;;;;;;;21.10;99.90;;;;;;12394572;28;20014;-87
2023/08/15 02:04:29;;;;;;;;;;;21.10;99.90;;;;;;12409936;28;19953;-86
2023/08/15 02:10:31;;;;;;;;;;;21.10;99.90;;;;;;12421607;28;19919;-86
2023/08/15 02:16:33;;;;;;;;;;;21.10;99.90;;;;;;12421807;28;19930;-88
2023/08/15 02:22:34;;;;;;;;;;;21.10;99.90;;;;;;12402759;28;19925;-87
2023/08/15 02:28:36;;;;;;;;;;;21.00;99.90;;;;;;12381516;28;19937;-86
2023/08/15 02:34:38;;;;;;;;;;;20.90;99.90;;;;;;12378360;28;19926;-87
2023/08/15 02:40:40;;;;;;;;;;;20.90;99.90;;;;;;12393773;28;20224;-87
2023/08/15 02:46:42;;;;;;;;;;;20.90;99.90;;;;;;12416770;28;19933;-88
2023/08/15 02:52:44;;;;;;;;;;;20.80;99.90;;;;;;12416142;28;19914;-87
2023/08/15 02:58:46;;;;;;;;;;;20.80;99.90;;;;;;12368652;28;20408;-87
2023/08/15 03:04:48;;;;;;;;;;;20.80;99.90;;;;;;12366779;28;20425;-87
2023/08/15 03:10:50;;;;;;;;;;;20.70;99.90;;;;;;12373061;28;19933;-87
2023/08/15 03:16:52;;;;;;;;;;;20.70;99.90;;;;;;12370983;28;19934;-87
2023/08/15 03:22:54;;;;;;;;;;;20.70;99.90;;;;;;12364407;28;20531;-87
2023/08/15 03:28:56;;;;;;;;;;;20.60;99.90;;;;;;12360765;28;19962;-86
2023/08/15 03:34:58;;;;;;;;;;;20.50;99.90;;;;;;12362492;28;20365;-87
2023/08/15 03:41:02;;;;;;;;;;;20.60;99.90;;;;;;12374648;28;19988;-86
2023/08/15 03:47:04;;;;;;;;;;;20.60;99.90;;;;;;12364282;28;20455;-87
2023/08/15 03:53:06;;;;;;;;;;;20.60;99.90;;;;;;12355053;28;19952;-87
2023/08/15 03:59:11;;;;;;;;;;;20.50;99.90;;;;;;12366300;28;19983;-88
2023/08/15 04:05:13;;;;;;;;;;;20.50;99.90;;;;;;12356557;28;19976;-87
2023/08/15 04:11:14;;;;;;;;;;;20.50;99.90;;;;;;12359835;28;19926;-87
2023/08/15 04:17:16;;;;;;;;;;;20.60;99.90;;;;;;12391274;28;19993;-86
2023/08/15 04:23:18;;;;;;;;;;;20.60;99.90;;;;;;12327999;28;20516;-87
2023/08/15 04:29:20;;;;;;;;;;;20.70;99.90;;;;;;12330857;28;20036;-87
2023/08/15 04:35:22;;;;;;;;;;;20.70;99.90;;;;;;12362568;28;19972;-87
2023/08/15 04:41:23;;;;;;;;;;;20.80;99.90;;;;;;12368061;28;19930;-87
2023/08/15 04:47:25;;;;;;;;;;;20.90;99.90;;;;;;12341507;28;19973;-87
2023/08/15 04:53:27;;;;;;;;;;;20.90;99.90;;;;;;12368005;28;19936;-87
2023/08/15 04:59:29;;;;;;;;;;;21.00;99.90;;;;;;12363580;28;19932;-88
2023/08/15 05:05:31;;;;;;;;;;;21.00;99.90;;;;;;12380705;28;19930;-87
2023/08/15 05:11:32;;;;;;;;;;;21.00;99.90;;;;;;12366222;28;19934;-88
2023/08/15 05:17:34;;;;;;;;;;;20.90;99.90;;;;;;12374789;28;19930;-88
2023/08/15 05:23:36;;;;;;;;;;;20.90;99.90;;;;;;12351632;28;20329;-86
2023/08/15 05:29:40;;;;;;;;;;;20.80;99.90;;;;;;12364387;28;21103;-91
2023/08/15 05:35:42;;;;;;;;;;;20.70;99.90;;;;;;12367870;28;20033;-88
2023/08/15 05:41:47;;;;;;;;;;;20.50;99.90;;;;;;12358036;28;19930;-94
2023/08/15 05:47:54;;;;;;;;;;;20.30;99.90;;;;;;12383998;28;20409;-92
2023/08/15 05:53:58;;;;;;;;;;;20.10;99.90;;;;;;12374227;28;19930;-92
2023/08/15 06:00:21;;;;;;;;;;;19.80;99.90;;;;;;12360968;28;19925;-93
2023/08/15 06:06:48;;;;;;;;;;;19.60;99.90;;;;;;12382937;28;20301;-92
2023/08/15 06:12:52;;;;;;;;;;;19.60;99.90;;;;;;12347133;28;19930;-92
2023/08/15 06:19:44;;;;;;;;;;;19.60;99.90;;;;;;12381325;28;19933;-94
2023/08/15 06:26:17;;;;;;;;;;;19.70;99.90;;;;;;12230190;29;19931;-92
2023/08/15 06:32:28;;;;;;;;;;;19.50;99.90;;;;;;12214418;29;20403;-94
2023/08/15 06:38:36;;;;;;;;;;;19.60;99.90;;;;;;12238856;29;19935;-93
2023/08/15 06:44:38;;;;;;;;;;;19.50;99.90;;;;;;12214441;29;19961;-92
2023/08/15 06:50:59;;;;;;;;;;;19.40;99.90;;;;;;12233367;29;19932;-91
2023/08/15 06:57:01;;;;;;;;;;;19.50;99.90;;;;;;12224915;29;19926;-89
2023/08/15 07:03:03;;;;;;;;;;;19.60;99.90;;;;;;12221444;29;19930;-87
2023/08/15 07:09:09;;;;;;;;;;;19.70;99.90;;;;;;12220900;29;20019;-89
2023/08/15 07:15:11;;;;;;;;;;;19.70;99.90;;;;;;12218334;29;19926;-88
2023/08/15 07:21:13;;;;;;;;;;;19.80;99.90;;;;;;12232907;29;20025;-88
2023/08/15 07:27:16;;;;;;;;;;;19.80;99.90;;;;;;12212420;29;20013;-89
2023/08/15 07:33:18;;;;;;;;;;;19.90;99.90;;;;;;12218525;29;19927;-88
2023/08/15 07:39:19;;;;;;;;;;;20.10;99.90;;;;;;12207802;29;20002;-88
2023/08/15 07:45:22;;;;;;;;;;;20.20;99.90;;;;;;12232155;29;19962;-89
2023/08/15 07:51:23;;;;;;;;;;;20.30;99.90;;;;;;12207812;29;19930;-90
2023/08/15 07:57:27;;;;;;;;;;;20.30;99.90;;;;;;12231324;29;19935;-91
2023/08/15 08:03:29;;;;;;;;;;;20.50;99.90;;;;;;12212025;29;20088;-90
2023/08/15 08:09:31;;;;;;;;;;;20.60;99.90;;;;;;12209387;29;20455;-91
2023/08/15 08:15:33;;;;;;;;;;;20.90;99.90;;;;;;12313151;28;19969;-89
2023/08/15 08:21:36;;;;;;;;;;;21.10;99.90;;;;;;12323167;28;19930;-90
2023/08/15 08:27:38;;;;;;;;;;;21.30;99.90;;;;;;12335169;28;19981;-89
2023/08/15 08:33:40;;;;;;;;;;;21.50;99.90;;;;;;12342895;28;19930;-90
2023/08/15 08:39:42;;;;;;;;;;;21.60;99.90;;;;;;12311231;28;19935;-90
2023/08/15 08:45:49;;;;;;;;;;;21.70;99.90;;;;;;12335238;28;19930;-89
2023/08/15 08:51:51;;;;;;;;;;;21.80;99.90;;;;;;12347070;28;20033;-88
2023/08/15 08:57:53;;;;;;;;;;;22.00;99.90;;;;;;12345093;28;19969;-89
2023/08/15 09:03:56;;;;;;;;;;;22.20;99.90;;;;;;12333697;28;20028;-89
2023/08/15 09:09:58;;;;;;;;;;;22.40;99.90;;;;;;12338722;28;20457;-90
2023/08/15 09:16:03;;;;;;;;;;;22.80;99.90;;;;;;12348438;28;20029;-89
2023/08/15 09:22:05;;;;;;;;;;;23.10;99.90;;;;;;12363334;28;19997;-88
2023/08/15 09:28:06;;;;;;;;;;;23.10;99.90;;;;;;12368698;28;19976;-87
2023/08/15 09:34:09;;;;;;;;;;;23.30;99.90;;;;;;12367047;28;19934;-88
2023/08/15 09:40:18;;;;;;;;;;;23.50;99.90;;;;;;12377541;28;19954;-87
2023/08/15 09:46:21;;;;;;;;;;;23.60;99.90;;;;;;12354880;28;19984;-87
2023/08/15 09:52:23;;;;;;;;;;;23.40;99.90;;;;;;12355606;28;19930;-89
2023/08/15 09:58:25;;;;;;;;;;;23.00;99.90;;;;;;12375172;28;19972;-90
2023/08/15 10:04:28;;;;;;;;;;;23.00;99.90;;;;;;12362274;28;19925;-88
2023/08/15 10:10:31;;;;;;;;;;;23.30;99.90;;;;;;12373650;28;20300;-90
2023/08/15 10:16:34;;;;;;;;;;;23.30;99.90;;;;;;12397554;28;19926;-88
2023/08/15 10:22:39;;;;;;;;;;;23.20;99.90;;;;;;12394589;28;19914;-88
2023/08/15 10:28:44;;;;;;;;;;;23.50;99.90;;;;;;12361084;28;19926;-88
2023/08/15 10:34:51;;;;;;;;;;;24.00;99.90;;;;;;12356734;28;19992;-90
2023/08/15 10:40:59;;;;;;;;;;;24.50;99.90;;;;;;12369453;28;20044;-89
2023/08/15 10:47:21;;;;;;;;;;;24.70;99.90;;;;;;12346535;28;20540;-89
2023/08/15 10:53:23;;;;;;;;;;;24.50;99.90;;;;;;12365515;28;19930;-89
2023/08/15 10:59:25;;;;;;;;;;;24.90;99.90;;;;;;12354206;28;19930;-88
2023/08/15 11:05:27;;;;;;;;;;;24.30;99.90;;;;;;12340611;28;19977;-89
2023/08/15 11:11:32;;;;;;;;;;;24.20;99.90;;;;;;12351947;28;19925;-90
2023/08/15 11:17:33;;;;;;;;;;;24.10;99.90;;;;;;12366606;28;19934;-90
2023/08/15 11:23:36;;;;;;;;;;;24.60;99.90;;;;;;12342521;28;20336;-88
2023/08/15 11:29:37;;;;;;;;;;;24.60;99.90;;;;;;12360771;28;19933;-89
2023/08/15 11:35:40;;;;;;;;;;;24.50;99.90;;;;;;12349771;28;19976;-88
2023/08/15 11:41:43;;;;;;;;;;;24.10;99.90;;;;;;12360691;28;19976;-90
2023/08/15 11:47:54;;;;;;;;;;;23.90;99.90;;;;;;12359643;28;19932;-88
2023/08/15 11:53:56;;;;;;;;;;;24.80;99.90;;;;;;12380586;28;19936;-88
2023/08/15 11:59:59;;;;;;;;;;;25.00;99.90;;;;;;12364067;28;19940;-89
2023/08/15 12:06:04;;;;;;;;;;;25.00;99.90;;;;;;12343410;28;19926;-88
2023/08/15 12:12:06;;;;;;;;;;;24.90;99.90;;;;;;12349803;28;19933;-89
2023/08/15 12:18:08;;;;;;;;;;;25.00;99.90;;;;;;12348501;28;20270;-87
2023/08/15 12:24:10;;;;;;;;;;;24.90;99.90;;;;;;12347034;28;19933;-89
2023/08/15 12:30:13;;;;;;;;;;;24.70;99.90;;;;;;12352088;28;20973;-89
2023/08/15 12:36:17;;;;;;;;;;;25.00;99.90;;;;;;12357513;28;19930;-88
2023/08/15 12:42:19;;;;;;;;;;;25.30;99.90;;;;;;12344894;28;19926;-89
2023/08/15 12:48:21;;;;;;;;;;;25.50;99.90;;;;;;12350235;28;20409;-88
2023/08/15 12:54:23;;;;;;;;;;;25.40;99.90;;;;;;12375934;28;19930;-89
2023/08/15 13:00:26;;;;;;;;;;;25.50;99.90;;;;;;12362288;28;20434;-88
2023/08/15 13:06:28;;;;;;;;;;;25.60;99.90;;;;;;12358929;28;20016;-87
2023/08/15 13:12:29;;;;;;;;;;;25.10;99.90;;;;;;12368872;28;19930;-88
2023/08/15 13:18:31;;;;;;;;;;;25.30;99.90;;;;;;12354187;28;19941;-88
2023/08/15 13:24:33;;;;;;;;;;;25.40;99.90;;;;;;12362265;28;19934;-88
2023/08/15 13:30:35;;;;;;;;;;;25.10;99.90;;;;;;12361157;28;19938;-89
2023/08/15 13:36:37;;;;;;;;;;;25.00;99.90;;;;;;12370722;28;19930;-88
2023/08/15 13:42:39;;;;;;;;;;;24.70;99.90;;;;;;12370831;28;19996;-88
2023/08/15 13:48:41;;;;;;;;;;;24.80;99.90;;;;;;12363254;28;19925;-88
2023/08/15 13:54:43;;;;;;;;;;;24.90;99.90;;;;;;12357149;28;19953;-89
2023/08/15 14:00:44;;;;;;;;;;;24.90;99.90;;;;;;12342096;28;20003;-89
2023/08/15 14:06:46;;;;;;;;;;;25.00;99.90;;;;;;12352928;28;20279;-90
2023/08/15 14:12:48;;;;;;;;;;;24.90;99.90;;;;;;12345717;28;19926;-91
2023/08/15 14:18:50;;;;;;;;;;;24.80;99.90;;;;;;12354787;28;19937;-90
2023/08/15 14:24:52;;;;;;;;;;;24.60;99.90;;;;;;12356665;28;19972;-91
2023/08/15 14:30:57;;;;;;;;;;;24.50;99.90;;;;;;12360316;28;19937;-88
2023/08/15 14:36:58;;;;;;;;;;;24.50;99.90;;;;;;12376856;28;19926;-89
2023/08/15 14:43:01;;;;;;;;;;;24.50;99.90;;;;;;12375565;28;20674;-89
2023/08/15 14:49:04;;;;;;;;;;;24.50;99.90;;;;;;12391410;28;19991;-88
2023/08/15 14:55:06;;;;;;;;;;;24.30;99.90;;;;;;12354710;28;19925;-88
2023/08/15 15:01:08;;;;;;;;;;;24.20;99.90;;;;;;12369817;28;19925;-89
2023/08/15 15:07:09;;;;;;;;;;;24.20;99.90;;;;;;12346395;28;20390;-87
2023/08/15 15:13:11;;;;;;;;;;;24.30;99.90;;;;;;12346100;28;19952;-88
2023/08/15 15:19:13;;;;;;;;;;;24.50;99.90;;;;;;12355506;28;19926;-87
2023/08/15 15:25:15;;;;;;;;;;;24.70;99.90;;;;;;12340294;28;19977;-88
2023/08/15 15:31:17;;;;;;;;;;;24.80;99.90;;;;;;12347142;28;19930;-88
2023/08/15 15:37:19;;;;;;;;;;;24.80;99.90;;;;;;12369028;28;19961;-88
2023/08/15 15:43:22;;;;;;;;;;;24.70;99.90;;;;;;12381136;28;20398;-88
2023/08/15 15:49:28;;;;;;;;;;;24.40;99.90;;;;;;12324936;28;19934;-88
2023/08/15 15:55:31;;;;;;;;;;;24.00;99.90;;;;;;12322496;28;19978;-88
2023/08/15 16:01:33;;;;;;;;;;;23.90;99.90;;;;;;12309635;28;20390;-87
2023/08/15 16:07:36;;;;;;;;;;;23.90;99.90;;;;;;12314207;28;19934;-87
2023/08/15 16:13:38;;;;;;;;;;;23.80;99.90;;;;;;12307278;28;20531;-88
2023/08/15 16:19:39;;;;;;;;;;;23.90;99.90;;;;;;12324134;28;19938;-88
2023/08/15 16:25:41;;;;;;;;;;;23.90;99.90;;;;;;12344235;23;19926;-84
2023/08/15 16:31:43;;;;;;;;;;;24.00;99.90;;;;;;12337123;28;19977;-84
2023/08/15 16:37:45;;;;;;;;;;;24.00;99.90;;;;;;12362577;28;19976;-84
2023/08/15 16:43:47;;;;;;;;;;;24.00;99.90;;;;;;12369300;28;19926;-83
2023/08/15 16:49:50;;;;;;;;;;;24.00;99.90;;;;;;12356182;28;19926;-84
2023/08/15 16:55:52;;;;;;;;;;;24.10;99.90;;;;;;12371463;28;19926;-84
2023/08/15 17:01:54;;;;;;;;;;;24.60;99.90;;;;;;12360082;28;19930;-84
2023/08/15 17:07:56;;;;;;;;;;;25.20;99.90;;;;;;12366024;28;20734;-87
2023/08/15 17:13:58;;;;;;;;;;;25.60;99.90;;;;;;12365711;28;19926;-86
2023/08/15 17:20:00;;;;;;;;;;;25.70;99.90;;;;;;12373992;28;19962;-86
2023/08/15 17:26:02;;;;;;;;;;;25.60;99.90;;;;;;12386909;28;19936;-87
2023/08/15 17:32:06;;;;;;;;;;;25.90;99.90;;;;;;12381803;28;20027;-87
2023/08/15 17:38:08;;;;;;;;;;;26.00;99.90;;;;;;12391629;28;19926;-86
2023/08/15 17:44:10;;;;;;;;;;;25.10;99.90;;;;;;12369797;28;19926;-87
2023/08/15 17:50:12;;;;;;;;;;;24.90;99.90;;;;;;12370830;28;19933;-87
2023/08/15 17:56:14;;;;;;;;;;;25.30;99.90;;;;;;12367723;28;20020;-86
2023/08/15 18:02:15;;;;;;;;;;;25.10;99.90;;;;;;12365510;28;19934;-87
2023/08/15 18:08:17;;;;;;;;;;;24.70;99.90;;;;;;12410373;28;20004;-86
2023/08/15 18:14:19;;;;;;;;;;;24.20;99.90;;;;;;12370925;28;20093;-84
2023/08/15 18:20:21;;;;;;;;;;;24.20;99.90;;;;;;12354378;28;19933;-84
2023/08/15 18:26:22;;;;;;;;;;;24.00;99.90;;;;;;12360293;28;19999;-84
2023/08/15 18:32:24;;;;;;;;;;;23.90;99.90;;;;;;12355905;28;19984;-83
2023/08/15 18:38:31;;;;;;;;;;;23.80;99.90;;;;;;12353803;28;19932;-84
2023/08/15 18:44:33;;;;;;;;;;;23.40;99.90;;;;;;12343114;28;19925;-84
2023/08/15 18:50:34;;;;;;;;;;;23.10;99.90;;;;;;12355885;28;19929;-83
2023/08/15 18:56:36;;;;;;;;;;;22.90;99.90;;;;;;12363942;28;19934;-84
2023/08/15 19:02:38;;;;;;;;;;;22.80;99.90;;;;;;12353479;28;19937;-84
2023/08/15 19:08:40;;;;;;;;;;;22.60;99.90;;;;;;12362278;28;20306;-84
2023/08/15 19:14:42;;;;;;;;;;;22.50;99.90;;;;;;12359613;28;19934;-84
2023/08/15 19:20:46;;;;;;;;;;;22.50;99.90;;;;;;12328438;28;19930;-84
2023/08/15 19:26:48;;;;;;;;;;;22.40;99.90;;;;;;12351718;28;19961;-85
2023/08/15 19:32:49;;;;;;;;;;;22.40;99.90;;;;;;12367808;28;19926;-85
2023/08/15 19:38:54;;;;;;;;;;;22.10;99.90;;;;;;12362894;28;20465;-85
2023/08/15 19:44:56;;;;;;;;;;;21.90;99.90;;;;;;12352538;28;19982;-85
2023/08/15 19:50:58;;;;;;;;;;;21.70;99.90;;;;;;12348612;28;19926;-85
2023/08/15 19:57:00;;;;;;;;;;;21.70;99.90;;;;;;12373768;28;20700;-85
2023/08/15 20:03:01;;;;;;;;;;;21.70;99.90;;;;;;12334144;28;19926;-85
2023/08/15 20:09:03;;;;;;;;;;;21.70;99.90;;;;;;12364490;28;19926;-85
2023/08/15 20:15:05;;;;;;;;;;;21.60;99.90;;;;;;12338763;28;19930;-85
2023/08/15 20:21:07;;;;;;;;;;;21.60;99.90;;;;;;12356443;28;20570;-85
2023/08/15 20:27:14;;;;;;;;;;;21.50;99.90;;;;;;12386357;28;19926;-85
2023/08/15 20:33:16;;;;;;;;;;;21.50;99.90;;;;;;12386406;28;19937;-85
2023/08/15 20:39:17;;;;;;;;;;;21.40;99.90;;;;;;12379933;28;19933;-83
2023/08/15 20:45:20;;;;;;;;;;;21.30;99.90;;;;;;12364493;28;19937;-82
2023/08/15 20:51:21;;;;;;;;;;;21.10;99.90;;;;;;12361887;28;19933;-83
2023/08/15 20:57:23;;;;;;;;;;;21.10;99.90;;;;;;12368282;28;19962;-83
2023/08/15 21:03:25;;;;;;;;;;;20.80;99.90;;;;;;12351200;28;20016;-83
2023/08/15 21:09:27;;;;;;;;;;;20.80;99.90;;;;;;12346140;28;19964;-83
2023/08/15 21:15:29;;;;;;;;;;;20.60;99.90;;;;;;12344191;28;19962;-82
2023/08/15 21:21:30;;;;;;;;;;;20.70;99.90;;;;;;12348871;28;19930;-83
2023/08/15 21:27:32;;;;;;;;;;;20.70;99.90;;;;;;12367550;28;20386;-83
2023/08/15 21:33:34;;;;;;;;;;;20.60;99.90;;;;;;12409936;28;19933;-83
2023/08/15 21:39:36;;;;;;;;;;;20.60;99.90;;;;;;12420058;28;19924;-83
2023/08/15 21:45:37;;;;;;;;;;;20.70;99.90;;;;;;12415612;28;19941;-84
2023/08/15 21:51:39;;;;;;;;;;;20.70;99.90;;;;;;12379261;28;19984;-84
2023/08/15 21:57:41;;;;;;;;;;;20.60;99.90;;;;;;12371871;28;20020;-83
2023/08/15 22:03:43;;;;;;;;;;;20.70;99.90;;;;;;12360649;28;19930;-84
2023/08/15 22:09:45;;;;;;;;;;;20.70;99.90;;;;;;12353235;28;19926;-82
2023/08/15 22:15:46;;;;;;;;;;;20.50;99.90;;;;;;12359165;28;19926;-83
2023/08/15 22:21:48;;;;;;;;;;;20.40;99.90;;;;;;12347469;28;19926;-83
2023/08/15 22:27:50;;;;;;;;;;;20.20;99.90;;;;;;12360684;28;20061;-83
2023/08/15 22:33:52;;;;;;;;;;;20.20;99.90;;;;;;12354197;28;19926;-83
2023/08/15 22:39:54;;;;;;;;;;;20.20;99.90;;;;;;12368615;28;19948;-83
2023/08/15 22:45:55;;;;;;;;;;;20.20;99.90;;;;;;12372977;28;19937;-83
2023/08/15 22:51:57;;;;;;;;;;;20.20;99.90;;;;;;12371739;28;19941;-83
2023/08/15 22:57:59;;;;;;;;;;;20.30;99.90;;;;;;12354840;28;20012;-83
2023/08/15 23:04:01;;;;;;;;;;;20.30;99.90;;;;;;12339812;28;19937;-82
2023/08/15 23:10:04;;;;;;;;;;;20.30;99.90;;;;;;12335838;28;20382;-82
2023/08/15 23:16:05;;;;;;;;;;;20.30;99.90;;;;;;12348228;28;20020;-81
2023/08/15 23:22:07;;;;;;;;;;;20.00;99.90;;;;;;12334131;28;19999;-82
2023/08/15 23:28:09;;;;;;;;;;;19.80;99.90;;;;;;12350999;28;20394;-82
2023/08/15 23:34:11;;;;;;;;;;;19.70;99.90;;;;;;12354761;28;20381;-82
2023/08/15 23:40:13;;;;;;;;;;;19.50;99.90;;;;;;12360145;28;19949;-82
2023/08/15 23:46:15;;;;;;;;;;;19.60;99.90;;;;;;12348682;28;20200;-82
2023/08/15 23:52:17;;;;;;;;;;;19.40;99.90;;;;;;12334006;28;20065;-82
2023/08/15 23:58:19;;;;;;;;;;;19.40;99.90;;;;;;12364180;28;20327;-82
